sensor_id;sensor_type;location;lat;lon;timestamp;P1;durP1;ratioP1;P2;durP2;ratioP2
47725;SDS011;33483;48.294;16.388;2022-12-07T00:01:33;17.02;;;11.13;;
47725;SDS011;33483;48.294;16.388;2022-12-07T00:04:03;15.93;;;10.43;;
47725;SDS011;33483;48.294;16.388;2022-12-07T00:06:39;16.83;;;11.30;;
47725;SDS011;33483;48.294;16.388;2022-12-07T00:09:11;18.45;;;10.52;;
47725;SDS011;33483;48.294;16.388;2022-12-07T00:11:42;16.88;;;11.43;;
47725;SDS011;33483;48.294;16.388;2022-12-07T00:14:11;16.33;;;11.20;;
47725;SDS011;33483;48.294;16.388;2022-12-07T00:16:40;16.75;;;10.77;;
47725;SDS011;33483;48.294;16.388;2022-12-07T00:19:08;14.80;;;9.85;;
47725;SDS011;33483;48.294;16.388;2022-12-07T00:21:37;15.77;;;10.50;;
47725;SDS011;33483;48.294;16.388;2022-12-07T00:24:07;14.55;;;9.93;;
47725;SDS011;33483;48.294;16.388;2022-12-07T00:26:36;18.60;;;10.13;;
47725;SDS011;33483;48.294;16.388;2022-12-07T00:29:06;15.65;;;10.73;;
47725;SDS011;33483;48.294;16.388;2022-12-07T00:31:38;14.35;;;9.93;;
47725;SDS011;33483;48.294;16.388;2022-12-07T00:34:06;17.92;;;10.52;;
47725;SDS011;33483;48.294;16.388;2022-12-07T00:36:39;18.35;;;11.20;;
47725;SDS011;33483;48.294;16.388;2022-12-07T00:39:06;17.02;;;10.45;;
47725;SDS011;33483;48.294;16.388;2022-12-07T00:41:36;17.88;;;10.93;;
47725;SDS011;33483;48.294;16.388;2022-12-07T00:44:03;17.88;;;11.15;;
47725;SDS011;33483;48.294;16.388;2022-12-07T00:46:30;17.60;;;11.20;;
47725;SDS011;33483;48.294;16.388;2022-12-07T00:48:57;17.67;;;10.60;;
47725;SDS011;33483;48.294;16.388;2022-12-07T00:51:25;19.48;;;11.50;;
47725;SDS011;33483;48.294;16.388;2022-12-07T00:53:52;18.33;;;11.50;;
47725;SDS011;33483;48.294;16.388;2022-12-07T00:56:21;18.08;;;11.10;;
47725;SDS011;33483;48.294;16.388;2022-12-07T00:58:53;19.92;;;11.70;;
47725;SDS011;33483;48.294;16.388;2022-12-07T01:01:23;19.35;;;11.32;;
47725;SDS011;33483;48.294;16.388;2022-12-07T01:03:52;23.38;;;11.90;;
47725;SDS011;33483;48.294;16.388;2022-12-07T01:06:20;16.48;;;10.98;;
47725;SDS011;33483;48.294;16.388;2022-12-07T01:08:53;20.85;;;12.98;;
47725;SDS011;33483;48.294;16.388;2022-12-07T01:11:24;18.92;;;12.65;;
47725;SDS011;33483;48.294;16.388;2022-12-07T01:13:54;20.75;;;12.10;;
47725;SDS011;33483;48.294;16.388;2022-12-07T01:16:23;20.75;;;12.70;;
47725;SDS011;33483;48.294;16.388;2022-12-07T01:18:53;21.50;;;13.82;;
47725;SDS011;33483;48.294;16.388;2022-12-07T01:21:23;21.13;;;12.70;;
47725;SDS011;33483;48.294;16.388;2022-12-07T01:23:54;20.30;;;13.38;;
47725;SDS011;33483;48.294;16.388;2022-12-07T01:26:25;19.02;;;12.10;;
47725;SDS011;33483;48.294;16.388;2022-12-07T01:28:53;19.35;;;13.13;;
47725;SDS011;33483;48.294;16.388;2022-12-07T01:31:23;21.20;;;13.63;;
47725;SDS011;33483;48.294;16.388;2022-12-07T01:33:58;21.65;;;12.85;;
47725;SDS011;33483;48.294;16.388;2022-12-07T01:36:33;27.55;;;14.00;;
47725;SDS011;33483;48.294;16.388;2022-12-07T01:39:03;20.40;;;13.45;;
47725;SDS011;33483;48.294;16.388;2022-12-07T01:41:33;22.75;;;13.40;;
47725;SDS011;33483;48.294;16.388;2022-12-07T01:46:32;21.77;;;14.15;;
47725;SDS011;33483;48.294;16.388;2022-12-07T01:49:00;19.80;;;12.50;;
47725;SDS011;33483;48.294;16.388;2022-12-07T01:51:28;20.13;;;13.27;;
47725;SDS011;33483;48.294;16.388;2022-12-07T01:53:56;19.17;;;13.18;;
47725;SDS011;33483;48.294;16.388;2022-12-07T01:56:24;20.05;;;13.43;;
47725;SDS011;33483;48.294;16.388;2022-12-07T01:58:53;20.70;;;13.20;;
47725;SDS011;33483;48.294;16.388;2022-12-07T02:01:21;19.92;;;12.90;;
47725;SDS011;33483;48.294;16.388;2022-12-07T02:03:49;20.88;;;13.35;;
47725;SDS011;33483;48.294;16.388;2022-12-07T02:06:17;21.08;;;12.45;;
47725;SDS011;33483;48.294;16.388;2022-12-07T02:08:48;20.27;;;12.88;;
47725;SDS011;33483;48.294;16.388;2022-12-07T02:11:16;20.10;;;13.05;;
47725;SDS011;33483;48.294;16.388;2022-12-07T02:13:44;21.48;;;14.05;;
47725;SDS011;33483;48.294;16.388;2022-12-07T02:19:06;20.52;;;13.05;;
47725;SDS011;33483;48.294;16.388;2022-12-07T02:35:15;18.63;;;12.57;;
47725;SDS011;33483;48.294;16.388;2022-12-07T02:40:30;21.65;;;13.20;;
47725;SDS011;33483;48.294;16.388;2022-12-07T02:43:08;20.20;;;13.30;;
47725;SDS011;33483;48.294;16.388;2022-12-07T02:45:46;18.92;;;12.30;;
47725;SDS011;33483;48.294;16.388;2022-12-07T02:48:16;22.58;;;13.82;;
47725;SDS011;33483;48.294;16.388;2022-12-07T02:50:48;19.65;;;13.13;;
47725;SDS011;33483;48.294;16.388;2022-12-07T02:53:33;19.88;;;12.20;;
47725;SDS011;33483;48.294;16.388;2022-12-07T02:59:06;20.00;;;12.30;;
47725;SDS011;33483;48.294;16.388;2022-12-07T03:01:47;20.85;;;12.48;;
47725;SDS011;33483;48.294;16.388;2022-12-07T03:16:33;17.30;;;11.57;;
47725;SDS011;33483;48.294;16.388;2022-12-07T03:19:03;20.40;;;12.52;;
47725;SDS011;33483;48.294;16.388;2022-12-07T03:21:43;18.27;;;11.90;;
47725;SDS011;33483;48.294;16.388;2022-12-07T03:24:15;21.85;;;12.70;;
47725;SDS011;33483;48.294;16.388;2022-12-07T03:26:49;21.92;;;12.80;;
47725;SDS011;33483;48.294;16.388;2022-12-07T03:29:27;19.60;;;12.23;;
47725;SDS011;33483;48.294;16.388;2022-12-07T03:32:02;18.45;;;11.57;;
47725;SDS011;33483;48.294;16.388;2022-12-07T03:34:52;18.73;;;11.88;;
47725;SDS011;33483;48.294;16.388;2022-12-07T03:40:07;23.60;;;12.23;;
47725;SDS011;33483;48.294;16.388;2022-12-07T03:42:37;20.67;;;11.52;;
47725;SDS011;33483;48.294;16.388;2022-12-07T03:45:04;17.33;;;11.45;;
47725;SDS011;33483;48.294;16.388;2022-12-07T03:53:35;19.52;;;12.10;;
47725;SDS011;33483;48.294;16.388;2022-12-07T03:55:47;20.23;;;11.93;;
47725;SDS011;33483;48.294;16.388;2022-12-07T03:58:16;22.65;;;11.70;;
47725;SDS011;33483;48.294;16.388;2022-12-07T04:00:46;18.73;;;11.05;;
47725;SDS011;33483;48.294;16.388;2022-12-07T04:03:14;18.65;;;12.13;;
47725;SDS011;33483;48.294;16.388;2022-12-07T04:05:41;20.13;;;12.18;;
47725;SDS011;33483;48.294;16.388;2022-12-07T04:08:09;21.00;;;12.45;;
47725;SDS011;33483;48.294;16.388;2022-12-07T04:10:39;20.60;;;11.90;;
47725;SDS011;33483;48.294;16.388;2022-12-07T04:13:06;20.13;;;11.95;;
47725;SDS011;33483;48.294;16.388;2022-12-07T04:15:33;20.13;;;11.80;;
47725;SDS011;33483;48.294;16.388;2022-12-07T04:18:00;18.17;;;11.43;;
47725;SDS011;33483;48.294;16.388;2022-12-07T04:20:27;19.02;;;11.57;;
47725;SDS011;33483;48.294;16.388;2022-12-07T04:22:55;19.80;;;11.95;;
47725;SDS011;33483;48.294;16.388;2022-12-07T04:25:24;18.02;;;11.50;;
47725;SDS011;33483;48.294;16.388;2022-12-07T04:27:54;18.63;;;12.48;;
47725;SDS011;33483;48.294;16.388;2022-12-07T04:30:21;17.38;;;11.45;;
47725;SDS011;33483;48.294;16.388;2022-12-07T04:32:51;23.35;;;11.68;;
47725;SDS011;33483;48.294;16.388;2022-12-07T04:35:20;20.35;;;11.32;;
47725;SDS011;33483;48.294;16.388;2022-12-07T04:37:48;21.02;;;11.90;;
47725;SDS011;33483;48.294;16.388;2022-12-07T04:40:17;18.35;;;11.20;;
47725;SDS011;33483;48.294;16.388;2022-12-07T04:42:47;17.67;;;11.45;;
47725;SDS011;33483;48.294;16.388;2022-12-07T04:45:14;19.55;;;11.35;;
47725;SDS011;33483;48.294;16.388;2022-12-07T04:47:42;21.10;;;11.43;;
47725;SDS011;33483;48.294;16.388;2022-12-07T04:50:11;16.50;;;10.68;;
47725;SDS011;33483;48.294;16.388;2022-12-07T04:52:40;19.50;;;11.35;;
47725;SDS011;33483;48.294;16.388;2022-12-07T04:55:07;17.50;;;11.73;;
47725;SDS011;33483;48.294;16.388;2022-12-07T04:57:35;17.95;;;11.05;;
47725;SDS011;33483;48.294;16.388;2022-12-07T05:00:02;14.50;;;9.65;;
47725;SDS011;33483;48.294;16.388;2022-12-07T05:02:30;16.48;;;9.88;;
47725;SDS011;33483;48.294;16.388;2022-12-07T05:04:58;17.83;;;10.38;;
47725;SDS011;33483;48.294;16.388;2022-12-07T05:07:27;19.73;;;10.63;;
47725;SDS011;33483;48.294;16.388;2022-12-07T05:09:54;17.88;;;10.18;;
47725;SDS011;33483;48.294;16.388;2022-12-07T05:12:21;19.80;;;12.07;;
47725;SDS011;33483;48.294;16.388;2022-12-07T05:14:48;18.23;;;10.85;;
47725;SDS011;33483;48.294;16.388;2022-12-07T05:17:16;18.70;;;11.80;;
47725;SDS011;33483;48.294;16.388;2022-12-07T05:19:43;21.25;;;11.27;;
47725;SDS011;33483;48.294;16.388;2022-12-07T05:22:11;19.75;;;11.43;;
47725;SDS011;33483;48.294;16.388;2022-12-07T05:24:38;18.58;;;10.40;;
47725;SDS011;33483;48.294;16.388;2022-12-07T05:27:05;16.00;;;10.13;;
47725;SDS011;33483;48.294;16.388;2022-12-07T05:29:32;18.73;;;10.55;;
47725;SDS011;33483;48.294;16.388;2022-12-07T05:32:02;19.58;;;11.43;;
47725;SDS011;33483;48.294;16.388;2022-12-07T05:34:29;18.42;;;10.65;;
47725;SDS011;33483;48.294;16.388;2022-12-07T05:36:56;18.58;;;11.45;;
47725;SDS011;33483;48.294;16.388;2022-12-07T05:39:23;16.10;;;10.45;;
47725;SDS011;33483;48.294;16.388;2022-12-07T05:41:51;21.85;;;12.57;;
47725;SDS011;33483;48.294;16.388;2022-12-07T05:44:36;17.75;;;11.27;;
47725;SDS011;33483;48.294;16.388;2022-12-07T05:47:04;18.40;;;11.18;;
47725;SDS011;33483;48.294;16.388;2022-12-07T05:49:31;19.35;;;10.95;;
47725;SDS011;33483;48.294;16.388;2022-12-07T05:51:59;18.23;;;10.27;;
47725;SDS011;33483;48.294;16.388;2022-12-07T05:54:26;19.38;;;11.20;;
47725;SDS011;33483;48.294;16.388;2022-12-07T05:56:53;20.30;;;11.13;;
47725;SDS011;33483;48.294;16.388;2022-12-07T05:59:20;18.40;;;11.85;;
47725;SDS011;33483;48.294;16.388;2022-12-07T06:02:09;17.60;;;10.35;;
47725;SDS011;33483;48.294;16.388;2022-12-07T06:04:39;18.38;;;11.15;;
47725;SDS011;33483;48.294;16.388;2022-12-07T06:07:12;15.65;;;10.30;;
47725;SDS011;33483;48.294;16.388;2022-12-07T06:09:41;20.17;;;11.02;;
47725;SDS011;33483;48.294;16.388;2022-12-07T06:12:09;15.65;;;9.50;;
47725;SDS011;33483;48.294;16.388;2022-12-07T06:14:57;16.35;;;10.20;;
47725;SDS011;33483;48.294;16.388;2022-12-07T06:17:24;16.63;;;10.30;;
47725;SDS011;33483;48.294;16.388;2022-12-07T06:19:54;17.90;;;9.73;;
47725;SDS011;33483;48.294;16.388;2022-12-07T06:22:21;15.38;;;10.10;;
47725;SDS011;33483;48.294;16.388;2022-12-07T06:24:49;17.92;;;10.80;;
47725;SDS011;33483;48.294;16.388;2022-12-07T06:27:16;18.40;;;10.07;;
47725;SDS011;33483;48.294;16.388;2022-12-07T06:29:43;16.30;;;10.30;;
47725;SDS011;33483;48.294;16.388;2022-12-07T06:32:10;17.13;;;10.25;;
47725;SDS011;33483;48.294;16.388;2022-12-07T06:34:40;14.65;;;9.20;;
47725;SDS011;33483;48.294;16.388;2022-12-07T06:37:07;16.58;;;9.90;;
47725;SDS011;33483;48.294;16.388;2022-12-07T06:39:34;17.23;;;10.30;;
47725;SDS011;33483;48.294;16.388;2022-12-07T06:42:02;17.80;;;10.27;;
47725;SDS011;33483;48.294;16.388;2022-12-07T06:44:29;18.52;;;11.40;;
47725;SDS011;33483;48.294;16.388;2022-12-07T06:46:58;16.70;;;9.80;;
47725;SDS011;33483;48.294;16.388;2022-12-07T06:49:46;14.57;;;8.70;;
47725;SDS011;33483;48.294;16.388;2022-12-07T06:52:13;15.50;;;9.68;;
47725;SDS011;33483;48.294;16.388;2022-12-07T06:54:40;20.85;;;9.88;;
47725;SDS011;33483;48.294;16.388;2022-12-07T06:57:07;14.90;;;9.93;;
47725;SDS011;33483;48.294;16.388;2022-12-07T06:59:35;16.83;;;10.13;;
47725;SDS011;33483;48.294;16.388;2022-12-07T07:02:02;17.38;;;9.93;;
47725;SDS011;33483;48.294;16.388;2022-12-07T07:04:29;15.95;;;9.88;;
47725;SDS011;33483;48.294;16.388;2022-12-07T07:06:56;17.35;;;10.20;;
47725;SDS011;33483;48.294;16.388;2022-12-07T07:09:26;16.75;;;9.57;;
47725;SDS011;33483;48.294;16.388;2022-12-07T07:11:56;16.02;;;9.07;;
47725;SDS011;33483;48.294;16.388;2022-12-07T07:14:26;15.27;;;9.70;;
47725;SDS011;33483;48.294;16.388;2022-12-07T07:16:53;15.55;;;8.88;;
47725;SDS011;33483;48.294;16.388;2022-12-07T07:19:20;17.00;;;9.57;;
47725;SDS011;33483;48.294;16.388;2022-12-07T07:21:47;15.40;;;8.55;;
47725;SDS011;33483;48.294;16.388;2022-12-07T07:24:15;13.68;;;8.40;;
47725;SDS011;33483;48.294;16.388;2022-12-07T07:26:42;12.63;;;7.78;;
47725;SDS011;33483;48.294;16.388;2022-12-07T07:29:09;11.43;;;7.63;;
47725;SDS011;33483;48.294;16.388;2022-12-07T07:31:38;13.73;;;7.55;;
47725;SDS011;33483;48.294;16.388;2022-12-07T07:34:08;10.50;;;6.80;;
47725;SDS011;33483;48.294;16.388;2022-12-07T07:36:35;12.07;;;6.95;;
47725;SDS011;33483;48.294;16.388;2022-12-07T07:39:03;12.73;;;7.38;;
47725;SDS011;33483;48.294;16.388;2022-12-07T07:41:30;13.25;;;6.78;;
47725;SDS011;33483;48.294;16.388;2022-12-07T07:43:57;11.00;;;6.13;;
47725;SDS011;33483;48.294;16.388;2022-12-07T07:46:25;10.48;;;6.47;;
47725;SDS011;33483;48.294;16.388;2022-12-07T07:48:52;10.38;;;6.55;;
47725;SDS011;33483;48.294;16.388;2022-12-07T07:51:19;10.98;;;6.40;;
47725;SDS011;33483;48.294;16.388;2022-12-07T07:53:47;11.57;;;6.10;;
47725;SDS011;33483;48.294;16.388;2022-12-07T07:56:14;9.98;;;6.38;;
47725;SDS011;33483;48.294;16.388;2022-12-07T07:58:41;9.40;;;6.25;;
47725;SDS011;33483;48.294;16.388;2022-12-07T08:01:08;11.32;;;6.57;;
47725;SDS011;33483;48.294;16.388;2022-12-07T08:03:35;11.70;;;7.10;;
47725;SDS011;33483;48.294;16.388;2022-12-07T08:06:03;10.73;;;6.50;;
47725;SDS011;33483;48.294;16.388;2022-12-07T08:08:31;8.55;;;5.75;;
47725;SDS011;33483;48.294;16.388;2022-12-07T08:10:58;9.70;;;6.30;;
47725;SDS011;33483;48.294;16.388;2022-12-07T08:13:28;7.97;;;5.43;;
47725;SDS011;33483;48.294;16.388;2022-12-07T08:15:57;9.45;;;5.47;;
47725;SDS011;33483;48.294;16.388;2022-12-07T08:18:25;8.55;;;5.40;;
47725;SDS011;33483;48.294;16.388;2022-12-07T08:20:52;10.15;;;5.80;;
47725;SDS011;33483;48.294;16.388;2022-12-07T08:23:28;9.68;;;5.93;;
47725;SDS011;33483;48.294;16.388;2022-12-07T08:26:05;8.23;;;5.40;;
47725;SDS011;33483;48.294;16.388;2022-12-07T08:28:35;8.98;;;5.45;;
47725;SDS011;33483;48.294;16.388;2022-12-07T08:31:03;9.65;;;5.45;;
47725;SDS011;33483;48.294;16.388;2022-12-07T08:33:45;7.85;;;5.07;;
47725;SDS011;33483;48.294;16.388;2022-12-07T08:36:14;12.27;;;5.30;;
47725;SDS011;33483;48.294;16.388;2022-12-07T08:38:42;8.77;;;5.75;;
47725;SDS011;33483;48.294;16.388;2022-12-07T08:41:29;7.88;;;5.00;;
47725;SDS011;33483;48.294;16.388;2022-12-07T08:43:57;12.00;;;5.60;;
47725;SDS011;33483;48.294;16.388;2022-12-07T08:46:28;9.80;;;5.25;;
47725;SDS011;33483;48.294;16.388;2022-12-07T08:49:05;8.20;;;5.22;;
47725;SDS011;33483;48.294;16.388;2022-12-07T08:51:34;7.22;;;4.97;;
47725;SDS011;33483;48.294;16.388;2022-12-07T08:54:04;8.65;;;5.47;;
47725;SDS011;33483;48.294;16.388;2022-12-07T08:56:35;7.72;;;5.28;;
47725;SDS011;33483;48.294;16.388;2022-12-07T08:59:04;8.80;;;5.30;;
47725;SDS011;33483;48.294;16.388;2022-12-07T09:01:32;7.20;;;5.10;;
47725;SDS011;33483;48.294;16.388;2022-12-07T09:04:00;9.00;;;5.13;;
47725;SDS011;33483;48.294;16.388;2022-12-07T09:06:27;10.38;;;5.60;;
47725;SDS011;33483;48.294;16.388;2022-12-07T09:08:56;7.88;;;5.28;;
47725;SDS011;33483;48.294;16.388;2022-12-07T09:11:26;9.27;;;5.57;;
47725;SDS011;33483;48.294;16.388;2022-12-07T09:13:55;7.78;;;4.95;;
47725;SDS011;33483;48.294;16.388;2022-12-07T09:16:22;7.15;;;4.93;;
47725;SDS011;33483;48.294;16.388;2022-12-07T09:18:50;7.47;;;4.80;;
47725;SDS011;33483;48.294;16.388;2022-12-07T09:21:17;6.47;;;4.47;;
47725;SDS011;33483;48.294;16.388;2022-12-07T09:23:45;6.05;;;4.40;;
47725;SDS011;33483;48.294;16.388;2022-12-07T09:26:12;6.10;;;4.25;;
47725;SDS011;33483;48.294;16.388;2022-12-07T09:28:39;6.15;;;4.20;;
47725;SDS011;33483;48.294;16.388;2022-12-07T09:31:06;5.55;;;3.75;;
47725;SDS011;33483;48.294;16.388;2022-12-07T09:33:54;5.45;;;3.80;;
47725;SDS011;33483;48.294;16.388;2022-12-07T09:36:25;5.32;;;3.60;;
47725;SDS011;33483;48.294;16.388;2022-12-07T09:38:54;5.03;;;3.40;;
47725;SDS011;33483;48.294;16.388;2022-12-07T09:41:21;5.68;;;3.70;;
47725;SDS011;33483;48.294;16.388;2022-12-07T09:43:50;5.10;;;3.17;;
47725;SDS011;33483;48.294;16.388;2022-12-07T09:46:19;6.38;;;3.83;;
47725;SDS011;33483;48.294;16.388;2022-12-07T09:48:48;8.77;;;3.58;;
47725;SDS011;33483;48.294;16.388;2022-12-07T09:51:18;7.20;;;4.40;;
47725;SDS011;33483;48.294;16.388;2022-12-07T09:53:54;5.97;;;3.85;;
47725;SDS011;33483;48.294;16.388;2022-12-07T09:56:24;6.07;;;3.90;;
47725;SDS011;33483;48.294;16.388;2022-12-07T09:58:54;4.90;;;3.55;;
47725;SDS011;33483;48.294;16.388;2022-12-07T10:01:29;5.50;;;3.70;;
47725;SDS011;33483;48.294;16.388;2022-12-07T10:04:00;5.20;;;3.75;;
47725;SDS011;33483;48.294;16.388;2022-12-07T10:06:36;5.50;;;3.65;;
47725;SDS011;33483;48.294;16.388;2022-12-07T10:09:08;6.25;;;3.25;;
47725;SDS011;33483;48.294;16.388;2022-12-07T10:12:01;4.70;;;2.78;;
47725;SDS011;33483;48.294;16.388;2022-12-07T10:14:28;6.30;;;2.72;;
47725;SDS011;33483;48.294;16.388;2022-12-07T10:22:55;6.95;;;2.95;;
47725;SDS011;33483;48.294;16.388;2022-12-07T10:25:30;5.18;;;3.08;;
47725;SDS011;33483;48.294;16.388;2022-12-07T10:28:00;5.50;;;3.33;;
47725;SDS011;33483;48.294;16.388;2022-12-07T10:30:52;5.07;;;3.70;;
47725;SDS011;33483;48.294;16.388;2022-12-07T10:33:38;5.05;;;3.47;;
47725;SDS011;33483;48.294;16.388;2022-12-07T10:36:21;4.80;;;3.40;;
47725;SDS011;33483;48.294;16.388;2022-12-07T10:39:04;7.33;;;4.23;;
47725;SDS011;33483;48.294;16.388;2022-12-07T10:42:09;5.22;;;3.50;;
47725;SDS011;33483;48.294;16.388;2022-12-07T10:50:17;7.10;;;4.05;;
47725;SDS011;33483;48.294;16.388;2022-12-07T11:02:20;5.15;;;3.60;;
47725;SDS011;33483;48.294;16.388;2022-12-07T11:11:01;11.52;;;4.15;;
47725;SDS011;33483;48.294;16.388;2022-12-07T11:13:42;5.65;;;3.60;;
47725;SDS011;33483;48.294;16.388;2022-12-07T11:19:04;7.47;;;3.90;;
47725;SDS011;33483;48.294;16.388;2022-12-07T11:21:58;8.23;;;3.70;;
47725;SDS011;33483;48.294;16.388;2022-12-07T11:32:44;5.40;;;3.75;;
47725;SDS011;33483;48.294;16.388;2022-12-07T11:37:55;5.53;;;3.75;;
47725;SDS011;33483;48.294;16.388;2022-12-07T11:40:28;6.05;;;3.90;;
47725;SDS011;33483;48.294;16.388;2022-12-07T11:43:02;5.00;;;3.70;;
47725;SDS011;33483;48.294;16.388;2022-12-07T11:45:39;5.82;;;3.63;;
47725;SDS011;33483;48.294;16.388;2022-12-07T11:48:27;6.30;;;4.38;;
47725;SDS011;33483;48.294;16.388;2022-12-07T11:51:00;6.45;;;4.13;;
47725;SDS011;33483;48.294;16.388;2022-12-07T11:53:34;5.30;;;3.90;;
47725;SDS011;33483;48.294;16.388;2022-12-07T12:01:14;7.00;;;4.50;;
47725;SDS011;33483;48.294;16.388;2022-12-07T12:03:51;5.78;;;4.07;;
47725;SDS011;33483;48.294;16.388;2022-12-07T12:06:23;5.53;;;3.95;;
47725;SDS011;33483;48.294;16.388;2022-12-07T12:08:54;7.07;;;4.72;;
47725;SDS011;33483;48.294;16.388;2022-12-07T12:26:05;7.28;;;3.88;;
47725;SDS011;33483;48.294;16.388;2022-12-07T12:28:39;6.40;;;4.18;;
47725;SDS011;33483;48.294;16.388;2022-12-07T12:31:29;5.32;;;3.80;;
47725;SDS011;33483;48.294;16.388;2022-12-07T12:34:02;7.88;;;3.88;;
47725;SDS011;33483;48.294;16.388;2022-12-07T12:46:57;5.50;;;3.95;;
47725;SDS011;33483;48.294;16.388;2022-12-07T12:54:32;6.85;;;3.97;;
47725;SDS011;33483;48.294;16.388;2022-12-07T12:57:22;6.18;;;3.88;;
47725;SDS011;33483;48.294;16.388;2022-12-07T13:12:58;6.55;;;4.53;;
47725;SDS011;33483;48.294;16.388;2022-12-07T13:18:48;6.38;;;4.30;;
47725;SDS011;33483;48.294;16.388;2022-12-07T13:21:02;7.43;;;4.75;;
47725;SDS011;33483;48.294;16.388;2022-12-07T13:23:55;7.37;;;4.50;;
47725;SDS011;33483;48.294;16.388;2022-12-07T13:34:04;6.60;;;4.30;;
47725;SDS011;33483;48.294;16.388;2022-12-07T13:36:51;7.03;;;4.28;;
47725;SDS011;33483;48.294;16.388;2022-12-07T13:39:20;8.77;;;4.55;;
47725;SDS011;33483;48.294;16.388;2022-12-07T13:41:51;8.55;;;4.38;;
47725;SDS011;33483;48.294;16.388;2022-12-07T13:44:24;7.60;;;4.60;;
47725;SDS011;33483;48.294;16.388;2022-12-07T13:49:51;12.40;;;4.38;;
47725;SDS011;33483;48.294;16.388;2022-12-07T13:52:24;6.35;;;4.70;;
47725;SDS011;33483;48.294;16.388;2022-12-07T13:57:33;8.15;;;4.70;;
47725;SDS011;33483;48.294;16.388;2022-12-07T14:00:03;9.05;;;4.97;;
47725;SDS011;33483;48.294;16.388;2022-12-07T14:02:33;8.27;;;5.30;;
47725;SDS011;33483;48.294;16.388;2022-12-07T14:05:16;7.30;;;4.88;;
47725;SDS011;33483;48.294;16.388;2022-12-07T14:10:29;7.25;;;4.60;;
47725;SDS011;33483;48.294;16.388;2022-12-07T14:12:59;8.65;;;5.00;;
47725;SDS011;33483;48.294;16.388;2022-12-07T14:15:32;8.20;;;5.10;;
47725;SDS011;33483;48.294;16.388;2022-12-07T14:18:01;8.25;;;5.32;;
47725;SDS011;33483;48.294;16.388;2022-12-07T14:20:40;11.68;;;5.10;;
47725;SDS011;33483;48.294;16.388;2022-12-07T14:23:24;11.02;;;5.57;;
47725;SDS011;33483;48.294;16.388;2022-12-07T14:25:53;7.22;;;4.78;;
47725;SDS011;33483;48.294;16.388;2022-12-07T14:28:27;10.15;;;5.53;;
47725;SDS011;33483;48.294;16.388;2022-12-07T14:30:57;7.32;;;4.80;;
47725;SDS011;33483;48.294;16.388;2022-12-07T14:33:25;9.52;;;5.03;;
47725;SDS011;33483;48.294;16.388;2022-12-07T14:35:53;7.35;;;4.90;;
47725;SDS011;33483;48.294;16.388;2022-12-07T14:38:25;7.32;;;4.65;;
47725;SDS011;33483;48.294;16.388;2022-12-07T14:40:53;6.82;;;4.88;;
47725;SDS011;33483;48.294;16.388;2022-12-07T14:43:41;7.50;;;4.78;;
47725;SDS011;33483;48.294;16.388;2022-12-07T14:46:29;8.73;;;5.18;;
47725;SDS011;33483;48.294;16.388;2022-12-07T14:48:56;8.18;;;5.05;;
47725;SDS011;33483;48.294;16.388;2022-12-07T14:51:44;7.32;;;4.60;;
47725;SDS011;33483;48.294;16.388;2022-12-07T14:54:33;8.13;;;4.95;;
47725;SDS011;33483;48.294;16.388;2022-12-07T14:57:00;8.70;;;4.78;;
47725;SDS011;33483;48.294;16.388;2022-12-07T14:59:30;9.50;;;5.22;;
47725;SDS011;33483;48.294;16.388;2022-12-07T15:02:00;7.88;;;4.95;;
47725;SDS011;33483;48.294;16.388;2022-12-07T15:04:27;7.53;;;4.68;;
47725;SDS011;33483;48.294;16.388;2022-12-07T15:06:56;8.80;;;5.20;;
47725;SDS011;33483;48.294;16.388;2022-12-07T15:09:27;8.27;;;4.88;;
47725;SDS011;33483;48.294;16.388;2022-12-07T15:11:55;8.23;;;4.78;;
47725;SDS011;33483;48.294;16.388;2022-12-07T15:14:24;8.57;;;5.05;;
47725;SDS011;33483;48.294;16.388;2022-12-07T15:16:52;10.43;;;5.53;;
47725;SDS011;33483;48.294;16.388;2022-12-07T15:19:34;8.80;;;5.57;;
47725;SDS011;33483;48.294;16.388;2022-12-07T15:22:07;7.63;;;5.13;;
47725;SDS011;33483;48.294;16.388;2022-12-07T15:24:37;9.30;;;5.47;;
47725;SDS011;33483;48.294;16.388;2022-12-07T15:27:04;7.80;;;5.15;;
47725;SDS011;33483;48.294;16.388;2022-12-07T15:29:32;11.32;;;5.45;;
47725;SDS011;33483;48.294;16.388;2022-12-07T15:31:59;8.18;;;5.72;;
47725;SDS011;33483;48.294;16.388;2022-12-07T15:34:27;8.27;;;5.47;;
47725;SDS011;33483;48.294;16.388;2022-12-07T15:37:05;7.38;;;5.00;;
47725;SDS011;33483;48.294;16.388;2022-12-07T15:39:33;10.30;;;5.47;;
47725;SDS011;33483;48.294;16.388;2022-12-07T15:42:00;9.68;;;5.57;;
47725;SDS011;33483;48.294;16.388;2022-12-07T15:44:27;9.90;;;5.82;;
47725;SDS011;33483;48.294;16.388;2022-12-07T15:47:13;9.75;;;5.97;;
47725;SDS011;33483;48.294;16.388;2022-12-07T15:49:40;10.50;;;6.10;;
47725;SDS011;33483;48.294;16.388;2022-12-07T15:52:07;10.45;;;6.15;;
47725;SDS011;33483;48.294;16.388;2022-12-07T15:54:34;13.85;;;6.60;;
47725;SDS011;33483;48.294;16.388;2022-12-07T15:57:02;9.57;;;6.22;;
47725;SDS011;33483;48.294;16.388;2022-12-07T15:59:29;15.98;;;6.63;;
47725;SDS011;33483;48.294;16.388;2022-12-07T16:02:01;10.18;;;6.25;;
47725;SDS011;33483;48.294;16.388;2022-12-07T16:04:28;9.77;;;6.30;;
47725;SDS011;33483;48.294;16.388;2022-12-07T16:06:58;14.13;;;6.32;;
47725;SDS011;33483;48.294;16.388;2022-12-07T16:09:25;11.80;;;6.60;;
47725;SDS011;33483;48.294;16.388;2022-12-07T16:11:54;12.30;;;6.35;;
47725;SDS011;33483;48.294;16.388;2022-12-07T16:14:21;10.80;;;6.72;;
47725;SDS011;33483;48.294;16.388;2022-12-07T16:16:49;11.18;;;6.32;;
47725;SDS011;33483;48.294;16.388;2022-12-07T16:19:19;8.88;;;6.30;;
47725;SDS011;33483;48.294;16.388;2022-12-07T16:21:46;9.75;;;6.22;;
47725;SDS011;33483;48.294;16.388;2022-12-07T16:24:13;10.15;;;6.40;;
47725;SDS011;33483;48.294;16.388;2022-12-07T16:26:42;11.23;;;7.40;;
47725;SDS011;33483;48.294;16.388;2022-12-07T16:29:16;12.55;;;6.68;;
47725;SDS011;33483;48.294;16.388;2022-12-07T16:31:46;10.45;;;6.70;;
47725;SDS011;33483;48.294;16.388;2022-12-07T16:34:14;10.73;;;6.63;;
47725;SDS011;33483;48.294;16.388;2022-12-07T16:36:42;13.20;;;6.80;;
47725;SDS011;33483;48.294;16.388;2022-12-07T16:39:29;11.35;;;7.03;;
47725;SDS011;33483;48.294;16.388;2022-12-07T16:41:56;13.10;;;7.45;;
47725;SDS011;33483;48.294;16.388;2022-12-07T16:44:28;12.43;;;6.85;;
47725;SDS011;33483;48.294;16.388;2022-12-07T16:46:56;12.02;;;7.22;;
47725;SDS011;33483;48.294;16.388;2022-12-07T16:49:23;11.20;;;7.22;;
47725;SDS011;33483;48.294;16.388;2022-12-07T16:51:51;10.88;;;7.45;;
47725;SDS011;33483;48.294;16.388;2022-12-07T16:54:39;13.50;;;8.00;;
47725;SDS011;33483;48.294;16.388;2022-12-07T16:57:07;14.20;;;7.55;;
47725;SDS011;33483;48.294;16.388;2022-12-07T16:59:34;11.05;;;6.97;;
47725;SDS011;33483;48.294;16.388;2022-12-07T17:02:02;12.20;;;7.50;;
47725;SDS011;33483;48.294;16.388;2022-12-07T17:04:32;12.52;;;7.30;;
47725;SDS011;33483;48.294;16.388;2022-12-07T17:07:00;13.18;;;8.25;;
47725;SDS011;33483;48.294;16.388;2022-12-07T17:09:27;10.70;;;6.80;;
47725;SDS011;33483;48.294;16.388;2022-12-07T17:11:56;10.60;;;6.78;;
47725;SDS011;33483;48.294;16.388;2022-12-07T17:14:23;11.75;;;7.18;;
47725;SDS011;33483;48.294;16.388;2022-12-07T17:17:14;10.93;;;7.13;;